Terminal Aerodrome Forecast
Issued by NWS

Current Version | Previous Version | Text Only | Print | Product List | Glossary On
Versions: 1 2 3 4 5 6 7 8 9 10 11 12 13 14 15 16 17 18 19 20 21 22 23 24 25 26 27 28 29 30 31 32 33 34
000
FTUS41 KCTP 271307 AAA
TAFLNS
TAF AMD
KLNS 271307Z 2713/2812 11007KT 6SM BR SCT008 OVC017
      TEMPO 2713/2715 4SM BR OVC008
     FM271600 12004KT 5SM BR BKN025
     FM271800 15008KT P6SM SCT035
     FM280200 21008KT P6SM VCSH OVC050
     FM280600 23005KT 2SM BR OVC050=

USA.gov is the U.S. government's official web portal to all federal, state and local government web resources and services.